createdAt,value
2023-12-10T00:01:35.667Z,98133.72
2023-12-10T00:04:40.399Z,98126.69
2023-12-10T00:07:43.263Z,98127.53
2023-12-10T00:10:46.367Z,98142.47
2023-12-10T00:13:49.074Z,98155.66
2023-12-10T00:16:52.312Z,98159.19
2023-12-10T00:19:55.139Z,98124.03
2023-12-10T00:22:58.714Z,98162.72
2023-12-10T00:26:04.393Z,98168.00
2023-12-10T00:29:07.719Z,98153.06
2023-12-10T00:32:10.433Z,98146.91
2023-12-10T00:35:13.609Z,98138.12
2023-12-10T00:38:17.702Z,98133.72
2023-12-10T00:41:22.650Z,98126.66
2023-12-10T00:44:25.669Z,98126.69
2023-12-10T00:47:28.853Z,98117.91
2023-12-10T00:50:31.758Z,98110.00
2023-12-10T00:53:35.188Z,98121.41
2023-12-10T00:56:37.892Z,98139.00
2023-12-10T00:59:40.901Z,98143.38
2023-12-10T01:02:44.001Z,98139.88
2023-12-10T01:05:47.211Z,98133.72
2023-12-10T01:08:49.966Z,98130.19
2023-12-10T01:11:53.037Z,98119.66
2023-12-10T01:14:55.739Z,98107.34
2023-12-10T01:18:02.764Z,98088.00
2023-12-10T01:21:11.580Z,98043.16
2023-12-10T01:24:20.635Z,98102.06
2023-12-10T01:27:23.570Z,98105.59
2023-12-10T01:30:26.753Z,98103.84
2023-12-10T01:33:30.020Z,98099.41
2023-12-10T01:36:33.267Z,98085.38
2023-12-10T01:39:36.074Z,98079.19
2023-12-10T01:42:39.426Z,98090.63
2023-12-10T01:45:42.232Z,98081.84
2023-12-10T01:48:45.730Z,98065.13
2023-12-10T01:51:49.134Z,98071.31
2023-12-10T01:54:52.453Z,98067.78
2023-12-10T01:57:55.786Z,98058.97
2023-12-10T02:00:59.006Z,98059.00
2023-12-10T02:04:02.247Z,98050.19
2023-12-10T02:07:05.597Z,98054.56
2023-12-10T02:10:08.669Z,98057.22
2023-12-10T02:13:12.604Z,98062.50
2023-12-10T02:16:15.589Z,98052.78
2023-12-10T02:19:18.952Z,98039.63
2023-12-10T02:22:22.604Z,98041.34
2023-12-10T02:25:43.969Z,98039.63
2023-12-10T02:28:46.933Z,98015.88
2023-12-10T02:31:50.228Z,98012.34
2023-12-10T02:34:53.085Z,98004.47
2023-12-10T02:37:57.066Z,98000.94
2023-12-10T02:40:59.707Z,98001.81
2023-12-10T02:44:02.899Z,98006.19
2023-12-10T02:47:05.511Z,98014.13
2023-12-10T02:50:09.256Z,98009.72
2023-12-10T02:53:12.211Z,98022.03
2023-12-10T02:56:15.385Z,98013.22
2023-12-10T02:59:17.967Z,98015.00
2023-12-10T03:02:21.328Z,98006.19
2023-12-10T03:05:24.855Z,97993.88
2023-12-10T03:08:27.967Z,97979.81
2023-12-10T03:11:30.804Z,97981.56
2023-12-10T03:14:34.141Z,97971.91
2023-12-10T03:17:37.401Z,97981.56
2023-12-10T03:20:40.667Z,97952.59
2023-12-10T03:23:43.476Z,97971.91
2023-12-10T03:26:46.449Z,97965.75
2023-12-10T03:29:49.333Z,97946.41
2023-12-10T03:32:52.380Z,97940.25
2023-12-10T03:35:55.285Z,97938.50
2023-12-10T03:38:58.733Z,97917.41
2023-12-10T03:42:01.693Z,97945.50
2023-12-10T03:45:05.433Z,97952.56
2023-12-10T03:48:08.135Z,97959.56
2023-12-10T03:51:11.310Z,97949.94
2023-12-10T03:54:13.992Z,97963.97
2023-12-10T03:57:17.305Z,97957.81
2023-12-10T04:00:20.384Z,97955.16
2023-12-10T04:03:24.015Z,97950.78
2023-12-10T04:06:28.022Z,97949.91
2023-12-10T04:09:31.103Z,97941.13
2023-12-10T04:12:34.084Z,97962.22
2023-12-10T04:15:37.503Z,97963.09
2023-12-10T04:18:40.271Z,97947.25
2023-12-10T04:21:43.609Z,97941.97
2023-12-10T04:24:46.540Z,97949.91
2023-12-10T04:27:49.820Z,97956.94
2023-12-10T04:30:52.695Z,97956.94
2023-12-10T04:33:56.320Z,97943.72
2023-12-10T04:36:59.257Z,97943.72
2023-12-10T04:40:02.736Z,97951.63
2023-12-10T04:43:05.713Z,97947.25
2023-12-10T04:46:08.774Z,97941.09
2023-12-10T04:49:11.950Z,97947.25
2023-12-10T04:52:15.402Z,97936.69
2023-12-10T04:55:18.248Z,97936.69
2023-12-10T04:58:21.263Z,97931.44
2023-12-10T05:01:24.465Z,97932.28
2023-12-10T05:04:27.948Z,97925.25
2023-12-10T05:07:30.725Z,97934.94
2023-12-10T05:10:33.832Z,97935.81
2023-12-10T05:13:36.956Z,97941.06
2023-12-10T05:16:39.914Z,97941.94
2023-12-10T05:19:42.805Z,97947.25
2023-12-10T05:22:46.072Z,97941.97
2023-12-10T05:25:48.996Z,97941.13
2023-12-10T05:28:52.151Z,97945.50
2023-12-10T05:31:54.890Z,97895.44
2023-12-10T05:34:58.201Z,97949.00
2023-12-10T05:38:01.136Z,97946.38
2023-12-10T05:41:05.452Z,97927.06
2023-12-10T05:44:08.715Z,97935.84
2023-12-10T05:47:12.068Z,97925.28
2023-12-10T05:50:15.043Z,97930.56
2023-12-10T05:53:18.167Z,97934.94
2023-12-10T05:56:20.924Z,97929.66
2023-12-10T05:59:24.120Z,97929.66
2023-12-10T06:02:28.262Z,97910.34
2023-12-10T06:05:32.442Z,97935.81
2023-12-10T06:08:35.422Z,97941.94
2023-12-10T06:11:38.533Z,97951.59
2023-12-10T06:14:41.257Z,97948.09
2023-12-10T06:17:44.490Z,97948.09
2023-12-10T06:20:47.100Z,97935.75
2023-12-10T06:23:50.454Z,97946.31
2023-12-10T06:26:53.716Z,97943.63
2023-12-10T06:29:56.717Z,97938.41
2023-12-10T06:32:59.454Z,97956.84
2023-12-10T06:36:02.768Z,97962.12
2023-12-10T06:39:06.239Z,97961.25
2023-12-10T06:42:09.168Z,97967.41
2023-12-10T06:45:14.180Z,97964.72
2023-12-10T06:48:18.029Z,97971.78
2023-12-10T06:51:20.903Z,97991.13
2023-12-10T06:54:24.176Z,97994.66
2023-12-10T06:57:27.041Z,97978.91
2023-12-10T07:00:30.445Z,97991.16
2023-12-10T07:03:34.315Z,97984.13
2023-12-10T07:06:38.445Z,97991.16
2023-12-10T07:09:41.384Z,97994.63
2023-12-10T07:12:44.751Z,97970.94
2023-12-10T07:15:47.863Z,97984.16
2023-12-10T07:18:51.258Z,98002.56
2023-12-10T07:21:56.686Z,98011.34
2023-12-10T07:25:00.270Z,98006.94
2023-12-10T07:28:04.236Z,98013.09
2023-12-10T07:31:07.480Z,98005.19
2023-12-10T07:34:10.360Z,98007.81
2023-12-10T07:37:13.535Z,98009.59
2023-12-10T07:40:16.326Z,98002.53
2023-12-10T07:43:19.576Z,98005.16
2023-12-10T07:46:22.319Z,98008.69
2023-12-10T07:49:25.596Z,98014.88
2023-12-10T07:52:28.703Z,98021.88
2023-12-10T07:55:32.111Z,98020.09
2023-12-10T07:58:34.883Z,98024.53
2023-12-10T08:01:38.145Z,98032.44
2023-12-10T08:04:41.272Z,98025.34
2023-12-10T08:07:43.967Z,98026.25
2023-12-10T08:10:51.762Z,98027.13
2023-12-10T08:13:57.754Z,98027.13
2023-12-10T08:17:01.287Z,98028.91
2023-12-10T08:20:06.232Z,98040.34
2023-12-10T08:23:09.582Z,98040.28
2023-12-10T08:26:12.297Z,98055.28
2023-12-10T08:29:15.570Z,98055.25
2023-12-10T08:32:18.267Z,98052.59
2023-12-10T08:35:21.432Z,98049.97
2023-12-10T08:38:24.185Z,98055.25
2023-12-10T08:41:27.282Z,98056.09
2023-12-10T08:44:30.057Z,98048.19
2023-12-10T08:47:33.053Z,98057.87
2023-12-10T08:50:35.989Z,98054.34
2023-12-10T08:53:38.957Z,98060.50
2023-12-10T08:56:41.644Z,98059.63
2023-12-10T08:59:44.537Z,98063.13
2023-12-10T09:02:47.294Z,98063.97
2023-12-10T09:05:50.403Z,98071.88
2023-12-10T09:08:53.073Z,98069.25
2023-12-10T09:11:56.245Z,98069.25
2023-12-10T09:14:58.934Z,98079.81
2023-12-10T09:18:02.465Z,98072.75
2023-12-10T09:21:05.354Z,98073.63
2023-12-10T09:24:08.363Z,98076.25
2023-12-10T09:27:11.152Z,98076.25
2023-12-10T09:30:15.427Z,98069.19
2023-12-10T09:33:18.788Z,98071.84
2023-12-10T09:36:21.961Z,98081.53
2023-12-10T09:39:25.767Z,98077.12
2023-12-10T09:42:29.178Z,98083.28
2023-12-10T09:45:33.175Z,98083.28
2023-12-10T09:48:38.032Z,98087.66
2023-12-10T09:51:40.974Z,98070.91
2023-12-10T09:54:45.265Z,98076.16
2023-12-10T09:57:48.394Z,98076.16
2023-12-10T10:00:52.198Z,98081.47
2023-12-10T10:03:56.960Z,98084.09
2023-12-10T10:07:00.167Z,98084.97
2023-12-10T10:10:06.955Z,98088.47
2023-12-10T10:13:09.937Z,98063.88
2023-12-10T10:16:13.813Z,98074.38
2023-12-10T10:19:17.307Z,98092.84
2023-12-10T10:22:20.733Z,98088.41
2023-12-10T10:25:23.499Z,98094.56
2023-12-10T10:28:26.484Z,98087.53
2023-12-10T10:31:29.945Z,98061.16
2023-12-10T10:34:33.116Z,98060.31
2023-12-10T10:37:37.143Z,98092.84
2023-12-10T10:40:40.271Z,98101.59
2023-12-10T10:43:43.143Z,98099.75
2023-12-10T10:46:46.238Z,98094.44
2023-12-10T10:50:19.714Z,98093.66
2023-12-10T10:53:17.656Z,98096.19
2023-12-10T10:56:20.334Z,98107.69
2023-12-10T10:59:31.201Z,98104.13
2023-12-10T11:02:34.012Z,98095.31
2023-12-10T11:05:38.106Z,98089.97
2023-12-10T11:08:56.466Z,98101.47
2023-12-10T11:12:00.618Z,98103.25
2023-12-10T11:15:03.471Z,98076.00
2023-12-10T11:18:09.705Z,98116.47
2023-12-10T11:21:14.566Z,98111.19
2023-12-10T11:24:18.600Z,98118.25
2023-12-10T11:27:21.623Z,98120.03
2023-12-10T11:30:25.567Z,98121.78
2023-12-10T11:33:28.728Z,98131.50
2023-12-10T11:36:36.908Z,98105.19
2023-12-10T11:39:43.485Z,98125.44
2023-12-10T11:42:46.734Z,98128.91
2023-12-10T11:45:49.578Z,98123.59
2023-12-10T11:48:55.261Z,98109.47
2023-12-10T11:51:58.139Z,98112.97
2023-12-10T11:55:01.384Z,98119.13
2023-12-10T11:58:04.584Z,98127.06
2023-12-10T12:01:11.231Z,98133.16
2023-12-10T12:04:14.470Z,98141.09
2023-12-10T12:07:27.706Z,98141.09
2023-12-10T12:10:38.011Z,98136.66
2023-12-10T12:13:41.079Z,98144.59
2023-12-10T12:16:44.949Z,98141.03
2023-12-10T12:19:48.520Z,98145.47
2023-12-10T12:22:51.764Z,98155.19
2023-12-10T12:25:54.602Z,98156.91
2023-12-10T12:28:57.743Z,98169.28
2023-12-10T12:32:18.422Z,98164.87
2023-12-10T12:35:24.418Z,98160.50
2023-12-10T12:38:27.433Z,98176.41
2023-12-10T12:41:31.037Z,98175.50
2023-12-10T12:44:33.946Z,98168.44
2023-12-10T12:47:37.628Z,98165.78
2023-12-10T12:50:40.267Z,98183.44
2023-12-10T12:54:10.832Z,98193.16
2023-12-10T12:57:06.448Z,98192.28
2023-12-10T13:00:10.536Z,98194.94
2023-12-10T13:03:13.300Z,98195.84
2023-12-10T13:06:17.712Z,98204.66
2023-12-10T13:09:20.825Z,98209.97
2023-12-10T13:12:24.173Z,98200.31
2023-12-10T13:15:27.207Z,98217.00
2023-12-10T13:18:30.665Z,98213.50
2023-12-10T13:21:33.484Z,98214.41
2023-12-10T13:24:38.035Z,98218.78
2023-12-10T13:27:40.949Z,98226.75
2023-12-10T13:30:44.116Z,98233.78
2023-12-10T13:33:47.226Z,98218.81
2023-12-10T13:36:50.526Z,98230.31
2023-12-10T13:39:53.328Z,98232.09
2023-12-10T13:42:56.298Z,98208.31
2023-12-10T13:45:59.273Z,98234.72
2023-12-10T13:49:02.825Z,98240.66
2023-12-10T13:52:05.747Z,98246.00
2023-12-10T13:55:09.327Z,98248.19
2023-12-10T13:58:12.116Z,98250.47
2023-12-10T14:01:16.839Z,98252.28
2023-12-10T14:04:20.357Z,98252.91
2023-12-10T14:07:23.551Z,98249.22
2023-12-10T14:10:26.744Z,98251.78
2023-12-10T14:13:29.488Z,98255.72
2023-12-10T14:16:32.602Z,98255.69
2023-12-10T14:19:35.304Z,98261.16
2023-12-10T14:22:38.631Z,98260.09
2023-12-10T14:25:44.549Z,98258.78
2023-12-10T14:28:47.925Z,98267.50
2023-12-10T14:31:50.544Z,98277.34
2023-12-10T14:34:53.704Z,98274.78
2023-12-10T14:37:56.725Z,98274.34
2023-12-10T14:40:59.804Z,98269.34
2023-12-10T14:44:02.617Z,98281.06
2023-12-10T14:47:05.741Z,98277.66
2023-12-10T14:50:08.627Z,98281.28
2023-12-10T14:53:11.649Z,98294.56
2023-12-10T14:56:14.745Z,98294.63
2023-12-10T14:59:18.487Z,98312.28
2023-12-10T15:02:21.435Z,98308.75
2023-12-10T15:05:24.558Z,98312.31
2023-12-10T15:08:29.696Z,98310.53
2023-12-10T15:11:38.890Z,98320.22
2023-12-10T15:14:42.184Z,98315.84
2023-12-10T15:17:46.355Z,98322.91
2023-12-10T15:20:49.438Z,98324.69
2023-12-10T15:23:53.171Z,98332.59
2023-12-10T15:26:55.857Z,98341.44
2023-12-10T15:29:58.814Z,98304.41
2023-12-10T15:33:01.643Z,98344.06
2023-12-10T15:36:11.371Z,98348.50
2023-12-10T15:39:14.429Z,98365.22
2023-12-10T15:42:17.649Z,98358.16
2023-12-10T15:45:21.382Z,98368.72
2023-12-10T15:48:27.339Z,98376.69
2023-12-10T15:51:31.248Z,98374.03
2023-12-10T15:54:34.576Z,98367.88
2023-12-10T15:57:38.633Z,98388.16
2023-12-10T16:00:41.892Z,98382.00
2023-12-10T16:03:45.099Z,98382.84
2023-12-10T16:06:47.932Z,98385.50
2023-12-10T16:09:51.280Z,98384.63
2023-12-10T16:12:54.067Z,98386.38
2023-12-10T16:15:57.121Z,98381.09
2023-12-10T16:19:00.257Z,98374.03
2023-12-10T16:22:03.374Z,98386.38
2023-12-10T16:25:06.478Z,98380.22
2023-12-10T16:28:09.957Z,98384.63
2023-12-10T16:31:13.275Z,98375.81
2023-12-10T16:34:16.673Z,98377.56
2023-12-10T16:37:19.421Z,98377.56
2023-12-10T16:40:22.563Z,98394.28
2023-12-10T16:43:25.557Z,98399.59
2023-12-10T16:46:40.798Z,98400.47
2023-12-10T16:49:43.597Z,98394.28
2023-12-10T16:52:46.774Z,98394.28
2023-12-10T16:55:51.407Z,98389.88
2023-12-10T16:58:54.439Z,98403.97
2023-12-10T17:01:57.061Z,98403.06
2023-12-10T17:05:01.729Z,98399.53
2023-12-10T17:08:04.820Z,98405.72
2023-12-10T17:11:07.934Z,98416.25
2023-12-10T17:14:10.638Z,98415.37
2023-12-10T17:17:16.464Z,98425.94
2023-12-10T17:20:19.314Z,98424.19
2023-12-10T17:23:22.778Z,98419.78
2023-12-10T17:26:25.775Z,98436.47
2023-12-10T17:29:28.990Z,98433.81
2023-12-10T17:32:33.134Z,98429.44
2023-12-10T17:35:36.340Z,98431.19
2023-12-10T17:38:39.162Z,98432.06
2023-12-10T17:41:45.130Z,98438.22
2023-12-10T17:44:54.284Z,98445.31
2023-12-10T17:48:00.700Z,98444.41
2023-12-10T17:51:09.986Z,98434.72
2023-12-10T17:54:21.594Z,98432.97
2023-12-10T17:57:24.728Z,98433.84
2023-12-10T18:00:27.961Z,98432.97
2023-12-10T18:03:31.182Z,98438.22
2023-12-10T18:06:36.249Z,98443.50
2023-12-10T18:09:39.324Z,98436.44
2023-12-10T18:12:42.041Z,98439.09
2023-12-10T18:15:45.034Z,98440.84
2023-12-10T18:18:49.133Z,98426.78
2023-12-10T18:21:52.664Z,98410.84
2023-12-10T18:24:55.846Z,98439.97
2023-12-10T18:27:59.826Z,98441.69
2023-12-10T18:31:03.426Z,98430.28
2023-12-10T18:34:06.876Z,98433.78
2023-12-10T18:37:12.400Z,98425.88
2023-12-10T18:40:17.904Z,98422.34
2023-12-10T18:43:20.748Z,98417.03
2023-12-10T18:46:24.612Z,98413.47
2023-12-10T18:49:27.660Z,98418.78
2023-12-10T18:52:30.778Z,98424.03
2023-12-10T18:55:34.175Z,98417.00
2023-12-10T18:58:37.189Z,98421.41
2023-12-10T19:01:42.405Z,98425.78
2023-12-10T19:04:48.700Z,98426.62
2023-12-10T19:07:56.162Z,98425.72
2023-12-10T19:11:01.681Z,98418.69
2023-12-10T19:14:04.623Z,98412.50
2023-12-10T19:17:07.529Z,98420.44
2023-12-10T19:20:24.325Z,98425.72
2023-12-10T19:23:29.859Z,98412.50
2023-12-10T19:26:33.158Z,98412.53
2023-12-10T19:29:36.127Z,98409.88
2023-12-10T19:32:39.424Z,98397.59
2023-12-10T19:35:42.788Z,98410.81
2023-12-10T19:38:45.963Z,98409.06
2023-12-10T19:41:50.135Z,98407.31
2023-12-10T19:44:53.468Z,98404.69
2023-12-10T19:47:56.926Z,98405.59
2023-12-10T19:51:02.232Z,98405.59
2023-12-10T19:54:05.456Z,98387.09
2023-12-10T19:57:08.665Z,98383.53
2023-12-10T20:00:12.222Z,98431.09
2023-12-10T20:03:15.265Z,98398.47
2023-12-10T20:06:18.138Z,98419.66
2023-12-10T20:09:21.125Z,98422.31
2023-12-10T20:12:23.795Z,98435.50
2023-12-10T20:15:26.809Z,98423.22
2023-12-10T20:18:29.823Z,98424.09
2023-12-10T20:21:32.988Z,98421.50
2023-12-10T20:24:38.870Z,98424.13
2023-12-10T20:27:47.858Z,98417.97
2023-12-10T20:30:51.166Z,98417.09
2023-12-10T20:33:54.544Z,98414.44
2023-12-10T20:36:57.517Z,98408.25
2023-12-10T20:40:00.945Z,98393.31
2023-12-10T20:43:04.172Z,98397.69
2023-12-10T20:46:09.319Z,98400.31
2023-12-10T20:49:12.268Z,98384.47
2023-12-10T20:52:15.561Z,98395.91
2023-12-10T20:55:18.597Z,98393.25
2023-12-10T20:58:21.967Z,98402.03
2023-12-10T21:01:28.602Z,98397.62
2023-12-10T21:04:31.708Z,98405.56
2023-12-10T21:07:34.572Z,98400.19
2023-12-10T21:10:37.963Z,98394.06
2023-12-10T21:13:40.846Z,98392.25
2023-12-10T21:16:44.243Z,98402.84
2023-12-10T21:19:47.082Z,98411.59
2023-12-10T21:22:50.694Z,98407.19
2023-12-10T21:25:53.767Z,98411.59
2023-12-10T21:28:56.880Z,98410.69
2023-12-10T21:32:00.200Z,98295.25
2023-12-10T21:35:07.587Z,98401.03
2023-12-10T21:38:10.230Z,98394.00
2023-12-10T21:41:13.508Z,98395.78
2023-12-10T21:44:16.580Z,98393.16
2023-12-10T21:47:19.623Z,98396.69
2023-12-10T21:50:23.678Z,98381.72
2023-12-10T21:53:26.751Z,98387.03
2023-12-10T21:56:29.536Z,98393.19
2023-12-10T21:59:32.437Z,98395.88
2023-12-10T22:02:35.133Z,98394.97
2023-12-10T22:05:38.320Z,98377.37
2023-12-10T22:08:41.077Z,98393.25
2023-12-10T22:11:44.060Z,98395.88
2023-12-10T22:14:46.854Z,98391.47
2023-12-10T22:17:50.262Z,98372.94
2023-12-10T22:20:53.126Z,98403.78
2023-12-10T22:23:56.583Z,98399.38
2023-12-10T22:26:59.352Z,98396.75
2023-12-10T22:30:02.501Z,98392.34
2023-12-10T22:33:06.140Z,98387.91
2023-12-10T22:36:09.957Z,98387.94
2023-12-10T22:39:14.333Z,98379.13
2023-12-10T22:42:17.374Z,98360.63
2023-12-10T22:45:20.272Z,98368.59
2023-12-10T22:48:24.022Z,98371.22
2023-12-10T22:51:26.996Z,98372.94
2023-12-10T22:54:30.343Z,98366.78
2023-12-10T22:57:33.519Z,98372.88
2023-12-10T23:03:39.588Z,98365.84
2023-12-10T23:06:42.806Z,98363.22
2023-12-10T23:09:45.481Z,98357.94
2023-12-10T23:12:48.574Z,98355.28
2023-12-10T23:16:08.225Z,98361.44
2023-12-10T23:19:11.937Z,98354.41
2023-12-10T23:22:14.805Z,98338.59
2023-12-10T23:25:18.062Z,98335.94
2023-12-10T23:28:20.833Z,98332.44
2023-12-10T23:31:23.913Z,98333.31
2023-12-10T23:34:27.312Z,98328.00
2023-12-10T23:37:30.878Z,98316.59
2023-12-10T23:40:33.890Z,98325.38
2023-12-10T23:43:37.693Z,98332.41
2023-12-10T23:46:42.010Z,98325.34
2023-12-10T23:49:45.239Z,98336.81
2023-12-10T23:52:48.311Z,98324.50
2023-12-10T23:55:51.309Z,98315.66
2023-12-10T23:58:54.264Z,98319.19
